sensor_id;sensor_type;location;lat;lon;timestamp;temperature;humidity
975;DHT22;6115;49.296;10.602;2023-02-01T00:00:28;3.50;83.20
975;DHT22;6115;49.296;10.602;2023-02-01T00:05:29;3.50;82.90
975;DHT22;6115;49.296;10.602;2023-02-01T00:10:29;3.50;83.20
975;DHT22;6115;49.296;10.602;2023-02-01T00:15:30;3.50;83.10
975;DHT22;6115;49.296;10.602;2023-02-01T00:20:30;3.60;82.80
975;DHT22;6115;49.296;10.602;2023-02-01T00:25:31;3.60;82.30
975;DHT22;6115;49.296;10.602;2023-02-01T00:30:32;3.60;81.90
975;DHT22;6115;49.296;10.602;2023-02-01T00:35:34;3.60;81.70
975;DHT22;6115;49.296;10.602;2023-02-01T00:40:35;3.60;81.60
975;DHT22;6115;49.296;10.602;2023-02-01T00:45:35;3.60;81.50
975;DHT22;6115;49.296;10.602;2023-02-01T00:50:36;3.70;81.00
975;DHT22;6115;49.296;10.602;2023-02-01T00:55:44;3.60;80.50
975;DHT22;6115;49.296;10.602;2023-02-01T01:00:45;3.70;80.20
975;DHT22;6115;49.296;10.602;2023-02-01T01:05:48;3.70;80.50
975;DHT22;6115;49.296;10.602;2023-02-01T01:10:48;3.70;80.80
975;DHT22;6115;49.296;10.602;2023-02-01T01:15:49;3.70;81.60
975;DHT22;6115;49.296;10.602;2023-02-01T01:20:50;3.50;81.20
975;DHT22;6115;49.296;10.602;2023-02-01T01:25:50;3.50;81.50
975;DHT22;6115;49.296;10.602;2023-02-01T01:30:51;3.50;81.70
975;DHT22;6115;49.296;10.602;2023-02-01T01:35:51;3.60;81.70
975;DHT22;6115;49.296;10.602;2023-02-01T01:40:52;3.50;81.70
975;DHT22;6115;49.296;10.602;2023-02-01T01:45:52;3.60;81.90
975;DHT22;6115;49.296;10.602;2023-02-01T01:51:07;3.60;81.60
975;DHT22;6115;49.296;10.602;2023-02-01T01:56:10;3.60;81.50
975;DHT22;6115;49.296;10.602;2023-02-01T02:01:11;3.60;81.20
975;DHT22;6115;49.296;10.602;2023-02-01T02:11:17;3.70;80.50
975;DHT22;6115;49.296;10.602;2023-02-01T02:27:16;3.70;80.30
975;DHT22;6115;49.296;10.602;2023-02-01T02:48:53;3.70;80.10
975;DHT22;6115;49.296;10.602;2023-02-01T02:59:19;3.70;80.30
975;DHT22;6115;49.296;10.602;2023-02-01T03:04:40;3.70;80.40
975;DHT22;6115;49.296;10.602;2023-02-01T03:09:44;3.70;80.20
975;DHT22;6115;49.296;10.602;2023-02-01T03:14:49;3.70;80.40
975;DHT22;6115;49.296;10.602;2023-02-01T03:19:52;3.70;80.20
975;DHT22;6115;49.296;10.602;2023-02-01T03:24:56;3.70;80.00
975;DHT22;6115;49.296;10.602;2023-02-01T03:35:23;3.70;79.60
975;DHT22;6115;49.296;10.602;2023-02-01T03:40:27;3.70;80.00
975;DHT22;6115;49.296;10.602;2023-02-01T03:45:34;3.70;80.00
975;DHT22;6115;49.296;10.602;2023-02-01T03:50:38;3.80;80.00
975;DHT22;6115;49.296;10.602;2023-02-01T03:55:41;3.70;80.10
975;DHT22;6115;49.296;10.602;2023-02-01T04:00:50;3.80;80.30
975;DHT22;6115;49.296;10.602;2023-02-01T04:05:51;3.90;80.10
975;DHT22;6115;49.296;10.602;2023-02-01T04:10:52;3.80;80.10
975;DHT22;6115;49.296;10.602;2023-02-01T04:15:53;3.90;79.90
975;DHT22;6115;49.296;10.602;2023-02-01T04:20:53;3.80;79.40
975;DHT22;6115;49.296;10.602;2023-02-01T04:25:54;3.90;78.90
975;DHT22;6115;49.296;10.602;2023-02-01T04:30:58;3.80;78.80
975;DHT22;6115;49.296;10.602;2023-02-01T04:35:59;3.90;78.90
975;DHT22;6115;49.296;10.602;2023-02-01T04:40:59;3.90;78.90
975;DHT22;6115;49.296;10.602;2023-02-01T04:46:00;3.90;78.90
975;DHT22;6115;49.296;10.602;2023-02-01T04:51:01;3.90;79.60
975;DHT22;6115;49.296;10.602;2023-02-01T04:56:01;3.90;78.90
975;DHT22;6115;49.296;10.602;2023-02-01T05:01:06;3.90;78.90
975;DHT22;6115;49.296;10.602;2023-02-01T05:06:07;4.00;78.90
975;DHT22;6115;49.296;10.602;2023-02-01T05:11:07;4.00;78.90
975;DHT22;6115;49.296;10.602;2023-02-01T05:16:28;4.00;78.90
975;DHT22;6115;49.296;10.602;2023-02-01T05:21:28;4.00;78.90
975;DHT22;6115;49.296;10.602;2023-02-01T05:26:29;4.10;79.10
975;DHT22;6115;49.296;10.602;2023-02-01T05:31:29;4.00;78.90
975;DHT22;6115;49.296;10.602;2023-02-01T05:36:31;4.10;79.10
975;DHT22;6115;49.296;10.602;2023-02-01T05:41:31;4.10;78.60
975;DHT22;6115;49.296;10.602;2023-02-01T05:46:32;4.20;78.60
975;DHT22;6115;49.296;10.602;2023-02-01T05:51:33;4.20;78.50
975;DHT22;6115;49.296;10.602;2023-02-01T05:56:34;4.20;78.60
975;DHT22;6115;49.296;10.602;2023-02-01T06:01:34;4.30;77.90
975;DHT22;6115;49.296;10.602;2023-02-01T06:06:35;4.30;77.20
975;DHT22;6115;49.296;10.602;2023-02-01T06:11:37;4.30;77.00
975;DHT22;6115;49.296;10.602;2023-02-01T06:16:37;4.30;77.30
975;DHT22;6115;49.296;10.602;2023-02-01T06:21:38;4.40;78.20
975;DHT22;6115;49.296;10.602;2023-02-01T06:26:39;4.20;79.20
975;DHT22;6115;49.296;10.602;2023-02-01T06:31:40;4.00;80.30
975;DHT22;6115;49.296;10.602;2023-02-01T06:36:42;3.80;81.60
975;DHT22;6115;49.296;10.602;2023-02-01T06:41:49;3.80;83.00
975;DHT22;6115;49.296;10.602;2023-02-01T06:46:50;3.70;82.90
975;DHT22;6115;49.296;10.602;2023-02-01T06:51:50;3.60;83.20
975;DHT22;6115;49.296;10.602;2023-02-01T06:56:51;3.60;83.20
975;DHT22;6115;49.296;10.602;2023-02-01T07:01:51;3.60;83.20
975;DHT22;6115;49.296;10.602;2023-02-01T07:06:52;3.60;83.20
975;DHT22;6115;49.296;10.602;2023-02-01T07:11:52;3.50;83.20
975;DHT22;6115;49.296;10.602;2023-02-01T07:16:53;3.50;83.20
975;DHT22;6115;49.296;10.602;2023-02-01T07:21:53;3.40;83.00
975;DHT22;6115;49.296;10.602;2023-02-01T07:26:54;3.40;83.00
975;DHT22;6115;49.296;10.602;2023-02-01T07:31:54;3.50;83.20
975;DHT22;6115;49.296;10.602;2023-02-01T07:36:55;3.60;83.30
975;DHT22;6115;49.296;10.602;2023-02-01T07:41:55;3.50;83.40
975;DHT22;6115;49.296;10.602;2023-02-01T07:46:56;3.30;83.40
975;DHT22;6115;49.296;10.602;2023-02-01T07:51:57;3.30;83.70
975;DHT22;6115;49.296;10.602;2023-02-01T07:56:57;3.30;84.00
975;DHT22;6115;49.296;10.602;2023-02-01T08:01:58;3.40;84.30
975;DHT22;6115;49.296;10.602;2023-02-01T08:06:59;3.40;84.10
975;DHT22;6115;49.296;10.602;2023-02-01T08:11:59;3.50;83.80
975;DHT22;6115;49.296;10.602;2023-02-01T08:17:01;3.60;83.70
975;DHT22;6115;49.296;10.602;2023-02-01T08:22:02;3.70;83.30
975;DHT22;6115;49.296;10.602;2023-02-01T08:27:06;3.70;83.30
975;DHT22;6115;49.296;10.602;2023-02-01T08:32:07;3.90;82.70
975;DHT22;6115;49.296;10.602;2023-02-01T08:37:08;3.90;81.80
975;DHT22;6115;49.296;10.602;2023-02-01T08:42:08;3.90;81.40
975;DHT22;6115;49.296;10.602;2023-02-01T08:47:28;4.00;82.10
975;DHT22;6115;49.296;10.602;2023-02-01T08:52:28;4.10;81.00
975;DHT22;6115;49.296;10.602;2023-02-01T08:57:29;4.10;80.30
975;DHT22;6115;49.296;10.602;2023-02-01T09:02:31;4.30;79.20
975;DHT22;6115;49.296;10.602;2023-02-01T09:07:33;4.30;78.00
975;DHT22;6115;49.296;10.602;2023-02-01T09:12:34;4.40;77.00
975;DHT22;6115;49.296;10.602;2023-02-01T09:17:35;4.50;74.70
975;DHT22;6115;49.296;10.602;2023-02-01T09:22:36;4.50;74.70
975;DHT22;6115;49.296;10.602;2023-02-01T09:27:37;4.50;74.10
975;DHT22;6115;49.296;10.602;2023-02-01T09:32:40;4.60;73.00
975;DHT22;6115;49.296;10.602;2023-02-01T09:37:41;4.50;72.00
975;DHT22;6115;49.296;10.602;2023-02-01T09:48:07;4.80;70.80
975;DHT22;6115;49.296;10.602;2023-02-01T09:53:32;5.00;70.60
975;DHT22;6115;49.296;10.602;2023-02-01T10:03:37;5.00;70.40
975;DHT22;6115;49.296;10.602;2023-02-01T10:14:12;5.40;69.20
975;DHT22;6115;49.296;10.602;2023-02-01T10:19:39;5.80;67.90
975;DHT22;6115;49.296;10.602;2023-02-01T10:24:53;5.70;66.40
975;DHT22;6115;49.296;10.602;2023-02-01T10:30:00;5.50;67.30
975;DHT22;6115;49.296;10.602;2023-02-01T10:35:15;6.10;67.40
975;DHT22;6115;49.296;10.602;2023-02-01T10:40:27;6.40;65.10
975;DHT22;6115;49.296;10.602;2023-02-01T10:45:30;6.80;63.90
975;DHT22;6115;49.296;10.602;2023-02-01T10:50:39;6.90;61.30
975;DHT22;6115;49.296;10.602;2023-02-01T11:00:52;7.20;60.00
975;DHT22;6115;49.296;10.602;2023-02-01T11:05:55;6.40;60.80
975;DHT22;6115;49.296;10.602;2023-02-01T11:10:59;6.30;63.00
975;DHT22;6115;49.296;10.602;2023-02-01T11:16:02;6.00;63.10
975;DHT22;6115;49.296;10.602;2023-02-01T11:21:05;5.90;65.20
975;DHT22;6115;49.296;10.602;2023-02-01T11:26:26;6.20;63.50
975;DHT22;6115;49.296;10.602;2023-02-01T11:31:28;6.20;64.80
975;DHT22;6115;49.296;10.602;2023-02-01T11:36:31;5.60;66.80
975;DHT22;6115;49.296;10.602;2023-02-01T11:41:33;5.30;67.30
975;DHT22;6115;49.296;10.602;2023-02-01T11:46:35;5.10;67.90
975;DHT22;6115;49.296;10.602;2023-02-01T11:51:46;5.10;66.50
975;DHT22;6115;49.296;10.602;2023-02-01T11:57:18;5.10;66.60
975;DHT22;6115;49.296;10.602;2023-02-01T12:23:46;5.30;67.00
975;DHT22;6115;49.296;10.602;2023-02-01T12:49:55;4.70;71.00
975;DHT22;6115;49.296;10.602;2023-02-01T12:55:22;4.80;70.20
975;DHT22;6115;49.296;10.602;2023-02-01T13:00:30;4.70;69.50
975;DHT22;6115;49.296;10.602;2023-02-01T13:05:53;4.50;69.90
975;DHT22;6115;49.296;10.602;2023-02-01T13:11:29;4.30;71.70
975;DHT22;6115;49.296;10.602;2023-02-01T13:16:35;4.10;74.30
975;DHT22;6115;49.296;10.602;2023-02-01T13:21:42;3.90;76.00
975;DHT22;6115;49.296;10.602;2023-02-01T13:26:46;3.80;77.00
975;DHT22;6115;49.296;10.602;2023-02-01T13:42:32;4.00;75.60
975;DHT22;6115;49.296;10.602;2023-02-01T13:47:45;4.10;74.30
975;DHT22;6115;49.296;10.602;2023-02-01T13:52:54;4.10;74.30
975;DHT22;6115;49.296;10.602;2023-02-01T13:58:22;4.20;74.40
975;DHT22;6115;49.296;10.602;2023-02-01T14:03:46;4.20;74.30
975;DHT22;6115;49.296;10.602;2023-02-01T14:09:13;4.00;74.70
975;DHT22;6115;49.296;10.602;2023-02-01T14:19:34;3.90;75.60
975;DHT22;6115;49.296;10.602;2023-02-01T14:24:36;4.00;75.30
975;DHT22;6115;49.296;10.602;2023-02-01T14:29:39;4.10;74.30
975;DHT22;6115;49.296;10.602;2023-02-01T14:40:04;4.20;72.30
975;DHT22;6115;49.296;10.602;2023-02-01T15:00:36;4.30;69.70
975;DHT22;6115;49.296;10.602;2023-02-01T15:05:36;4.30;69.70
975;DHT22;6115;49.296;10.602;2023-02-01T15:10:42;4.40;69.80
975;DHT22;6115;49.296;10.602;2023-02-01T15:15:43;4.40;69.20
975;DHT22;6115;49.296;10.602;2023-02-01T15:20:56;4.40;68.20
975;DHT22;6115;49.296;10.602;2023-02-01T15:25:58;4.50;68.20
975;DHT22;6115;49.296;10.602;2023-02-01T15:31:02;4.40;67.00
975;DHT22;6115;49.296;10.602;2023-02-01T15:41:20;4.40;66.50
975;DHT22;6115;49.296;10.602;2023-02-01T15:46:35;4.50;66.60
975;DHT22;6115;49.296;10.602;2023-02-01T15:51:36;4.40;65.50
975;DHT22;6115;49.296;10.602;2023-02-01T15:56:39;4.40;65.50
975;DHT22;6115;49.296;10.602;2023-02-01T16:01:41;4.40;66.40
975;DHT22;6115;49.296;10.602;2023-02-01T16:06:56;4.30;66.90
975;DHT22;6115;49.296;10.602;2023-02-01T16:12:00;4.40;66.80
975;DHT22;6115;49.296;10.602;2023-02-01T16:17:01;4.40;66.70
975;DHT22;6115;49.296;10.602;2023-02-01T16:22:02;4.40;66.90
975;DHT22;6115;49.296;10.602;2023-02-01T16:27:03;4.40;66.60
975;DHT22;6115;49.296;10.602;2023-02-01T16:32:05;4.40;66.50
975;DHT22;6115;49.296;10.602;2023-02-01T16:37:12;4.30;66.20
975;DHT22;6115;49.296;10.602;2023-02-01T16:42:14;4.40;66.50
975;DHT22;6115;49.296;10.602;2023-02-01T16:47:18;4.30;66.10
975;DHT22;6115;49.296;10.602;2023-02-01T16:52:24;4.40;66.30
975;DHT22;6115;49.296;10.602;2023-02-01T16:57:25;4.40;66.00
975;DHT22;6115;49.296;10.602;2023-02-01T17:02:27;4.40;65.60
975;DHT22;6115;49.296;10.602;2023-02-01T17:07:28;4.40;66.00
975;DHT22;6115;49.296;10.602;2023-02-01T17:12:30;4.40;65.00
975;DHT22;6115;49.296;10.602;2023-02-01T17:17:38;4.40;65.00
975;DHT22;6115;49.296;10.602;2023-02-01T17:22:39;4.50;65.00
975;DHT22;6115;49.296;10.602;2023-02-01T17:27:39;4.50;65.10
975;DHT22;6115;49.296;10.602;2023-02-01T17:32:41;4.50;65.00
975;DHT22;6115;49.296;10.602;2023-02-01T17:37:42;4.50;64.90
975;DHT22;6115;49.296;10.602;2023-02-01T17:42:42;4.60;64.10
975;DHT22;6115;49.296;10.602;2023-02-01T17:47:43;4.70;64.00
975;DHT22;6115;49.296;10.602;2023-02-01T17:52:44;4.70;63.80
975;DHT22;6115;49.296;10.602;2023-02-01T17:57:46;4.60;63.90
975;DHT22;6115;49.296;10.602;2023-02-01T18:02:47;4.60;63.70
975;DHT22;6115;49.296;10.602;2023-02-01T18:07:48;4.70;63.90
975;DHT22;6115;49.296;10.602;2023-02-01T18:12:48;4.70;64.10
975;DHT22;6115;49.296;10.602;2023-02-01T18:17:49;4.70;64.10
975;DHT22;6115;49.296;10.602;2023-02-01T18:22:50;4.70;64.20
975;DHT22;6115;49.296;10.602;2023-02-01T18:27:52;4.70;63.90
975;DHT22;6115;49.296;10.602;2023-02-01T18:32:53;4.80;64.10
975;DHT22;6115;49.296;10.602;2023-02-01T18:37:54;4.70;63.90
975;DHT22;6115;49.296;10.602;2023-02-01T18:42:55;4.80;63.90
975;DHT22;6115;49.296;10.602;2023-02-01T18:47:59;4.80;63.60
975;DHT22;6115;49.296;10.602;2023-02-01T18:53:02;4.80;63.50
975;DHT22;6115;49.296;10.602;2023-02-01T18:58:04;4.80;63.40
975;DHT22;6115;49.296;10.602;2023-02-01T19:03:11;4.80;63.30
975;DHT22;6115;49.296;10.602;2023-02-01T19:08:12;4.90;63.30
975;DHT22;6115;49.296;10.602;2023-02-01T19:13:12;4.90;63.10
975;DHT22;6115;49.296;10.602;2023-02-01T19:18:13;4.90;63.20
975;DHT22;6115;49.296;10.602;2023-02-01T19:23:19;4.80;63.50
975;DHT22;6115;49.296;10.602;2023-02-01T19:28:20;4.80;63.80
975;DHT22;6115;49.296;10.602;2023-02-01T19:33:21;4.80;63.80
975;DHT22;6115;49.296;10.602;2023-02-01T19:38:21;4.80;63.90
975;DHT22;6115;49.296;10.602;2023-02-01T19:43:22;4.80;64.20
975;DHT22;6115;49.296;10.602;2023-02-01T19:48:23;4.70;65.20
975;DHT22;6115;49.296;10.602;2023-02-01T19:53:24;4.60;65.10
975;DHT22;6115;49.296;10.602;2023-02-01T19:58:26;4.60;65.60
975;DHT22;6115;49.296;10.602;2023-02-01T20:03:27;4.50;66.50
975;DHT22;6115;49.296;10.602;2023-02-01T20:08:28;4.50;66.10
975;DHT22;6115;49.296;10.602;2023-02-01T20:13:29;4.60;65.20
975;DHT22;6115;49.296;10.602;2023-02-01T20:18:30;4.50;66.30
975;DHT22;6115;49.296;10.602;2023-02-01T20:23:31;4.40;67.70
975;DHT22;6115;49.296;10.602;2023-02-01T20:28:32;4.40;67.60
975;DHT22;6115;49.296;10.602;2023-02-01T20:33:33;4.40;68.30
975;DHT22;6115;49.296;10.602;2023-02-01T20:38:34;4.40;68.20
975;DHT22;6115;49.296;10.602;2023-02-01T20:43:35;4.40;68.20
975;DHT22;6115;49.296;10.602;2023-02-01T20:48:36;4.50;67.90
975;DHT22;6115;49.296;10.602;2023-02-01T20:53:37;4.60;67.70
975;DHT22;6115;49.296;10.602;2023-02-01T20:58:38;4.60;67.50
975;DHT22;6115;49.296;10.602;2023-02-01T21:03:39;4.60;67.40
975;DHT22;6115;49.296;10.602;2023-02-01T21:08:39;4.60;67.50
975;DHT22;6115;49.296;10.602;2023-02-01T21:13:42;4.60;67.40
975;DHT22;6115;49.296;10.602;2023-02-01T21:18:50;4.70;67.00
975;DHT22;6115;49.296;10.602;2023-02-01T21:23:51;4.70;67.50
975;DHT22;6115;49.296;10.602;2023-02-01T21:28:55;4.70;66.70
975;DHT22;6115;49.296;10.602;2023-02-01T21:33:56;4.80;66.50
975;DHT22;6115;49.296;10.602;2023-02-01T21:38:56;4.80;66.10
975;DHT22;6115;49.296;10.602;2023-02-01T21:44:03;4.80;66.30
975;DHT22;6115;49.296;10.602;2023-02-01T21:49:03;4.70;68.20
975;DHT22;6115;49.296;10.602;2023-02-01T21:54:05;4.50;69.10
975;DHT22;6115;49.296;10.602;2023-02-01T21:59:06;4.40;69.80
975;DHT22;6115;49.296;10.602;2023-02-01T22:04:09;4.50;69.30
975;DHT22;6115;49.296;10.602;2023-02-01T22:09:22;4.50;68.80
975;DHT22;6115;49.296;10.602;2023-02-01T22:14:23;4.50;68.50
975;DHT22;6115;49.296;10.602;2023-02-01T22:19:23;4.50;69.30
975;DHT22;6115;49.296;10.602;2023-02-01T22:24:24;4.50;69.20
975;DHT22;6115;49.296;10.602;2023-02-01T22:29:24;4.50;69.30
975;DHT22;6115;49.296;10.602;2023-02-01T22:34:26;4.60;69.40
975;DHT22;6115;49.296;10.602;2023-02-01T22:39:26;4.60;68.60
975;DHT22;6115;49.296;10.602;2023-02-01T22:44:27;4.70;68.30
975;DHT22;6115;49.296;10.602;2023-02-01T22:49:27;4.70;68.00
975;DHT22;6115;49.296;10.602;2023-02-01T22:54:28;4.70;67.90
975;DHT22;6115;49.296;10.602;2023-02-01T22:59:29;4.80;67.90
975;DHT22;6115;49.296;10.602;2023-02-01T23:04:29;4.70;67.50
975;DHT22;6115;49.296;10.602;2023-02-01T23:09:30;4.80;67.40
975;DHT22;6115;49.296;10.602;2023-02-01T23:14:30;4.80;67.20
975;DHT22;6115;49.296;10.602;2023-02-01T23:19:31;4.80;67.00
975;DHT22;6115;49.296;10.602;2023-02-01T23:24:31;4.80;67.00
975;DHT22;6115;49.296;10.602;2023-02-01T23:29:32;4.80;66.90
975;DHT22;6115;49.296;10.602;2023-02-01T23:34:32;4.80;66.70
975;DHT22;6115;49.296;10.602;2023-02-01T23:39:34;4.90;67.00
975;DHT22;6115;49.296;10.602;2023-02-01T23:44:34;4.80;67.10
975;DHT22;6115;49.296;10.602;2023-02-01T23:49:35;4.80;67.80
975;DHT22;6115;49.296;10.602;2023-02-01T23:54:35;4.90;68.00
975;DHT22;6115;49.296;10.602;2023-02-01T23:59:36;4.80;68.30
